Hudson, OH

11:39 AM EDT on September 02, 2014 (GMT -0400)
Hudson | Change Station
CLOSE
Current Station
Personal Weather Station
Location: Hudson, OH
Elevation: 1045 ft
Nearby Weather Stations

Elev 1045 ft 41.26 °N, 81.42 °W | Updated 10 seconds ago

Overcast
Overcast
75.8 °F
Feels Like 77 °F
N
1.0
Wind Variable Wind from South
Gusts 5.0 mph

Today
High -- | Low -- °F
--% Chance of Precip.
Yesterday
High -- | Low -- °F
Precip. -- in
6:53 AM 7:56 PM
First Quarter, 52% visible
Pressure 29.89 in
Visibility 10.0 miles
Clouds Few 4300 ft
Scattered Clouds 7000 ft
Mostly Cloudy 10000 ft
Heat Index 77 °F
Dew Point 70 °F
Humidity 82%
Rainfall 0.00 in
Snow Depth Not available.
UV 3 out of 12
Pollen 5.10 out of 12
Ozone Good
PM2.5 Good
Flu Activity Not available.
METAR KAKR 021454Z AUTO 19007KT 10SM -RA FEW043 SCT070 BKN100 24/20 A2992 RMK AO2 RAB37 SLP121 P0000 60000 T02390200 58018

More Conditions Fewer Conditions

Pressure 29.89 in
Visibility 10.0 miles
Clouds Few 4300 ft
Scattered Clouds 7000 ft
Mostly Cloudy 10000 ft
Heat Index 77 °F
Dew Point 70 °F
Humidity 82%
Rainfall 0.00 in
Snow Depth Not available.
UV 3 out of 12
Pollen 5.10 out of 12
Ozone Good
PM2.5 Good
Flu Activity Not available.
METAR KAKR 021454Z AUTO 19007KT 10SM -RA FEW043 SCT070 BKN100 24/20 A2992 RMK AO2 RAB37 SLP121 P0000 60000 T02390200 58018

More Conditions Fewer Conditions

10-Day Weather Forecast

Almanac

Astronomy

Sep. 02, 2014 Rise Set
Actual Time 6:53 AM EDT 7:56 PM EDT
Civil Twilight 6:24 AM EDT 8:25 PM EDT
Nautical Twilight 5:51 AM EDT 8:58 PM EDT
Astronomical Twilight 5:15 AM EDT 9:33 PM EDT
Moon 2:40 PM EDT No Moon Set
Length of Visible Light 14h 00m
Length of Day
13h 03m
Tomorrow will be 2m 39s shorter.
First Quarter, 52% of the Moon is Illuminated
Today
First Quarter
Sep 8
Full
Sep 15
Last Quarter
Sep 24
New
Oct 1
First Quarter

Today's Extremes

State Highs State Lows

Community

WunderPhotos

Upload Photos

1,749,700 photos uploaded!

Nearby

Air Quality

  Air Quality AQ Index Pollutant
Yesterday Good
PM10
Yesterday Good
OZONE
Current Good
PM2.5
Current Good
OZONE
Tuesday Moderate
PM2.5
Tuesday Good
OZONE
Wednesday Moderate
PM2.5
Wednesday Good
OZONE
Thursday Moderate
PM2.5
Thursday Good
OZONE

Snow Depth

Station Depth Elevation
No new snow has been reported.

Earthquake Activity

City Distance Mag. Time & Date
No recent earthquake activity has been reported nearby.
Minimum magnitude displayed is 2.5.

Coastal Water Temperatures

Place Temperature
Cleveland, OH 73.0 °F
Fairport, OH 73.0 °F

Nearby Weather Stations